Time;durP1;ratioP1;P1;durP2;ratioP2;P2;SDS_P1;SDS_P2;PMS_P1;PMS_P2;Temp;Humidity;BMP_temperature;BMP_pressure;BME280_temperature;BME280_humidity;BME280_pressure;Samples;Min_cycle;Max_cycle;Signal;HPM_P1;HPM_P2
2021/10/19 00:00:50;;;;;;;16.55;14.38;;;12.80;99.90;;;;;;5097603;27;20058;-67
2021/10/19 00:03:15;;;;;;;17.95;14.50;;;12.80;99.90;;;;;;5092572;28;20047;-67
2021/10/19 00:05:41;;;;;;;16.83;14.65;;;12.80;99.90;;;;;;5126092;27;20051;-67
2021/10/19 00:08:07;;;;;;;17.98;14.80;;;12.80;99.90;;;;;;5125101;27;20105;-67
2021/10/19 00:10:32;;;;;;;15.70;13.25;;;12.80;99.90;;;;;;5090957;28;20118;-67
2021/10/19 00:12:58;;;;;;;18.20;14.20;;;12.80;99.90;;;;;;5096913;27;20040;-67
2021/10/19 00:15:24;;;;;;;19.73;14.00;;;12.80;99.90;;;;;;5091922;28;20039;-67
2021/10/19 00:17:50;;;;;;;16.88;15.10;;;12.80;99.90;;;;;;5090641;27;20044;-67
2021/10/19 00:20:16;;;;;;;16.88;15.13;;;12.80;99.90;;;;;;5097065;27;20681;-67
2021/10/19 00:22:42;;;;;;;16.02;13.82;;;12.80;99.90;;;;;;5093153;28;20051;-67
2021/10/19 00:25:10;;;;;;;20.42;15.70;;;12.80;99.90;;;;;;5125775;27;20043;-67
2021/10/19 00:27:37;;;;;;;17.70;14.27;;;12.80;99.90;;;;;;5095483;28;20047;-67
2021/10/19 00:30:05;;;;;;;19.25;13.85;;;12.80;99.90;;;;;;5095471;28;20035;-67
2021/10/19 00:32:31;;;;;;;20.02;14.50;;;12.80;99.90;;;;;;5093521;27;20032;-67
2021/10/19 00:34:56;;;;;;;14.93;13.43;;;12.80;99.90;;;;;;5094737;28;20058;-67
2021/10/19 00:37:22;;;;;;;17.17;14.30;;;12.80;99.90;;;;;;5093263;28;20047;-67
2021/10/19 00:39:48;;;;;;;15.88;13.15;;;12.80;99.90;;;;;;5125549;27;20040;-67
2021/10/19 00:42:13;;;;;;;18.77;13.38;;;12.80;99.90;;;;;;5093793;28;20046;-67
2021/10/19 00:44:39;;;;;;;17.00;14.20;;;12.80;99.90;;;;;;5126293;27;20043;-67
2021/10/19 00:47:04;;;;;;;16.30;13.95;;;12.80;99.90;;;;;;5091974;28;20523;-67
2021/10/19 00:49:30;;;;;;;17.83;14.30;;;12.80;99.90;;;;;;5108421;27;20077;-67
2021/10/19 00:51:56;;;;;;;17.13;14.10;;;12.80;99.90;;;;;;5095201;28;20031;-67
2021/10/19 00:54:23;;;;;;;14.88;13.40;;;12.80;99.90;;;;;;5090641;28;20194;-67
2021/10/19 00:56:51;;;;;;;17.50;13.57;;;12.80;99.90;;;;;;5090693;28;20100;-67
2021/10/19 00:59:17;;;;;;;19.63;14.13;;;12.80;99.90;;;;;;5093123;28;20668;-67
2021/10/19 01:01:43;;;;;;;17.20;15.48;;;12.80;99.90;;;;;;5093358;28;20051;-67
2021/10/19 01:04:09;;;;;;;18.33;13.95;;;12.90;99.90;;;;;;5093217;28;20117;-67
2021/10/19 01:06:34;;;;;;;17.30;13.48;;;12.90;99.90;;;;;;5095881;28;20130;-67
2021/10/19 01:09:00;;;;;;;16.73;13.13;;;12.80;99.90;;;;;;5127775;27;20089;-67
2021/10/19 01:11:26;;;;;;;16.25;14.23;;;12.90;99.90;;;;;;5096962;28;20473;-67
2021/10/19 01:13:52;;;;;;;19.08;14.63;;;12.90;99.90;;;;;;5095994;27;20044;-67
2021/10/19 01:16:18;;;;;;;18.05;14.30;;;12.90;99.90;;;;;;5096854;28;20504;-67
2021/10/19 01:18:44;;;;;;;17.35;13.35;;;12.90;99.90;;;;;;5096806;27;20650;-67
2021/10/19 01:21:10;;;;;;;18.05;14.55;;;12.90;99.90;;;;;;5107931;27;20050;-67
2021/10/19 01:23:36;;;;;;;16.48;14.10;;;12.90;99.90;;;;;;5094995;28;20039;-67
2021/10/19 01:26:06;;;;;;;18.23;13.77;;;12.90;99.90;;;;;;5098016;27;20047;-67
2021/10/19 01:28:40;;;;;;;20.23;13.50;;;13.00;99.90;;;;;;5095123;28;20119;-67
2021/10/19 01:31:06;;;;;;;17.23;13.73;;;12.90;99.90;;;;;;5095175;27;20097;-67
2021/10/19 01:33:32;;;;;;;19.77;15.32;;;12.90;99.90;;;;;;5095232;28;20096;-67
2021/10/19 01:35:58;;;;;;;18.58;15.18;;;12.90;99.90;;;;;;5097400;27;20474;-67
2021/10/19 01:38:28;;;;;;;16.83;13.77;;;12.90;99.90;;;;;;5098329;27;20084;-67
2021/10/19 01:40:55;;;;;;;16.13;14.25;;;12.90;99.90;;;;;;5096464;28;20570;-67
2021/10/19 01:43:23;;;;;;;16.65;14.20;;;12.90;99.90;;;;;;5098370;28;20043;-67
2021/10/19 01:45:51;;;;;;;14.38;12.85;;;12.90;99.90;;;;;;5127703;27;20538;-67
2021/10/19 01:48:17;;;;;;;16.17;12.95;;;12.90;99.90;;;;;;5097353;28;20032;-67
2021/10/19 01:50:43;;;;;;;18.80;14.27;;;12.90;99.90;;;;;;5098282;27;20043;-67
2021/10/19 01:53:10;;;;;;;16.52;14.60;;;12.90;99.90;;;;;;5094342;28;20047;-67
2021/10/19 01:55:37;;;;;;;15.65;13.80;;;13.00;99.90;;;;;;5093705;28;20472;-67
2021/10/19 01:58:04;;;;;;;16.38;14.60;;;13.00;99.90;;;;;;5098966;27;20035;-67
2021/10/19 02:00:30;;;;;;;20.35;14.52;;;13.00;99.90;;;;;;5096390;27;20039;-67
2021/10/19 02:02:55;;;;;;;15.50;13.75;;;13.00;99.90;;;;;;5097122;27;20032;-67
2021/10/19 02:05:21;;;;;;;17.20;15.40;;;12.90;99.90;;;;;;5096367;27;20044;-67
2021/10/19 02:07:46;;;;;;;15.30;13.70;;;13.00;99.90;;;;;;5098460;28;20056;-67
2021/10/19 02:10:13;;;;;;;18.48;13.88;;;13.00;99.90;;;;;;5099362;27;20075;-67
2021/10/19 02:12:39;;;;;;;17.08;14.50;;;13.00;99.90;;;;;;5093730;28;20032;-67
2021/10/19 02:15:07;;;;;;;17.65;14.15;;;13.00;99.90;;;;;;5095888;27;20035;-67
2021/10/19 02:17:33;;;;;;;15.48;13.88;;;12.90;99.90;;;;;;5096548;27;20081;-67
2021/10/19 02:20:00;;;;;;;15.95;14.23;;;13.00;99.90;;;;;;5078893;28;20134;-67
2021/10/19 02:22:28;;;;;;;15.90;14.07;;;13.00;99.90;;;;;;5095778;27;20052;-67
2021/10/19 02:24:54;;;;;;;17.92;15.27;;;12.90;99.90;;;;;;5096830;28;20047;-67
2021/10/19 02:27:19;;;;;;;15.88;13.70;;;13.00;99.90;;;;;;5093022;27;20036;-67
2021/10/19 02:29:45;;;;;;;20.02;14.93;;;13.00;99.90;;;;;;5098153;27;20505;-67
2021/10/19 02:32:11;;;;;;;17.35;14.18;;;12.90;99.90;;;;;;5125652;27;20077;-67
2021/10/19 02:34:37;;;;;;;16.50;14.50;;;12.90;99.90;;;;;;5095023;28;20044;-67
2021/10/19 02:37:03;;;;;;;17.92;15.05;;;12.90;99.90;;;;;;5096656;28;20038;-67
2021/10/19 02:39:28;;;;;;;16.50;14.02;;;12.90;99.90;;;;;;5094990;27;20036;-67
2021/10/19 02:41:54;;;;;;;17.67;15.10;;;12.90;99.90;;;;;;5095797;28;20040;-67
2021/10/19 02:44:20;;;;;;;17.20;14.18;;;12.90;99.90;;;;;;5093424;28;20036;-68
2021/10/19 02:46:45;;;;;;;18.00;15.27;;;12.90;99.90;;;;;;5098386;27;20082;-67
2021/10/19 02:49:11;;;;;;;15.95;14.30;;;13.00;99.90;;;;;;5098310;27;20110;-67
2021/10/19 02:51:36;;;;;;;16.52;14.60;;;12.90;99.90;;;;;;5094925;28;20947;-67
2021/10/19 02:54:02;;;;;;;17.85;15.15;;;12.90;99.90;;;;;;5094901;27;20086;-67
2021/10/19 02:56:28;;;;;;;19.02;15.00;;;13.00;99.90;;;;;;5097711;28;20040;-67
2021/10/19 02:58:54;;;;;;;16.00;14.40;;;13.00;99.90;;;;;;5096984;27;20035;-67
2021/10/19 03:01:19;;;;;;;17.10;14.80;;;13.00;99.90;;;;;;5094430;28;20032;-67
2021/10/19 03:03:45;;;;;;;16.40;14.23;;;13.00;99.90;;;;;;5096242;27;20044;-67
2021/10/19 03:06:10;;;;;;;16.85;13.80;;;12.90;99.90;;;;;;5094758;28;20497;-67
2021/10/19 03:08:36;;;;;;;18.40;16.10;;;13.00;99.90;;;;;;5093792;27;20053;-67
2021/10/19 03:11:02;;;;;;;16.75;15.00;;;12.90;99.90;;;;;;5125745;27;20067;-67
2021/10/19 03:13:28;;;;;;;16.10;14.45;;;12.90;99.90;;;;;;5123907;27;20050;-67
2021/10/19 03:15:57;;;;;;;16.75;14.98;;;13.00;99.90;;;;;;5093225;27;20051;-67
2021/10/19 03:18:23;;;;;;;17.92;15.23;;;12.90;99.90;;;;;;5095263;27;20089;-67
2021/10/19 03:20:50;;;;;;;19.88;15.02;;;13.00;99.90;;;;;;5096899;27;20147;-67
2021/10/19 03:23:16;;;;;;;17.02;15.10;;;13.00;99.90;;;;;;5095897;27;20044;-67
2021/10/19 03:25:42;;;;;;;16.30;14.45;;;13.00;99.90;;;;;;5092978;27;20051;-67
2021/10/19 03:28:08;;;;;;;16.98;14.88;;;13.00;99.90;;;;;;5093214;27;20028;-67
2021/10/19 03:30:34;;;;;;;15.55;13.57;;;13.10;99.90;;;;;;5096538;28;20624;-67
2021/10/19 03:33:01;;;;;;;17.85;14.73;;;13.10;99.90;;;;;;5097546;27;20092;-67
2021/10/19 03:35:27;;;;;;;15.77;14.15;;;13.10;99.90;;;;;;5093524;27;20069;-67
2021/10/19 03:37:54;;;;;;;17.50;14.73;;;13.10;99.90;;;;;;5094053;27;20151;-67
2021/10/19 03:40:19;;;;;;;17.40;14.65;;;13.10;99.90;;;;;;5093342;28;20047;-67
2021/10/19 03:42:47;;;;;;;19.30;13.38;;;13.10;99.90;;;;;;5095843;28;20035;-67
2021/10/19 03:45:15;;;;;;;16.15;14.23;;;13.20;99.90;;;;;;5125974;27;20089;-67
2021/10/19 03:47:40;;;;;;;20.58;14.65;;;13.10;99.90;;;;;;5092207;28;20374;-67
2021/10/19 03:50:07;;;;;;;17.75;14.45;;;13.10;99.90;;;;;;5095628;28;20065;-67
2021/10/19 03:52:33;;;;;;;16.50;14.43;;;13.20;99.90;;;;;;5093520;28;20031;-67
2021/10/19 03:54:59;;;;;;;22.17;14.25;;;13.20;99.90;;;;;;5094594;28;20121;-67
2021/10/19 03:57:24;;;;;;;20.55;14.52;;;13.20;99.90;;;;;;5095466;27;20084;-67
2021/10/19 03:59:50;;;;;;;17.75;14.20;;;13.30;99.90;;;;;;5123861;27;20055;-67
2021/10/19 04:02:16;;;;;;;15.20;13.45;;;13.20;99.90;;;;;;5098815;28;20044;-67
2021/10/19 04:04:42;;;;;;;18.77;14.55;;;13.30;99.90;;;;;;5102101;27;20058;-67
2021/10/19 04:07:10;;;;;;;17.75;14.02;;;13.30;99.90;;;;;;5102654;27;20039;-67
2021/10/19 04:09:36;;;;;;;14.68;13.18;;;13.20;99.90;;;;;;5099015;28;20051;-67
2021/10/19 04:12:02;;;;;;;20.23;14.38;;;13.30;99.90;;;;;;5096442;28;20042;-67
2021/10/19 04:14:27;;;;;;;14.73;13.32;;;13.30;99.90;;;;;;5098171;27;20066;-67
2021/10/19 04:16:53;;;;;;;21.17;14.15;;;13.30;99.90;;;;;;5102594;27;20031;-67
2021/10/19 04:19:19;;;;;;;15.43;13.80;;;13.30;99.90;;;;;;5103321;27;20043;-67
2021/10/19 04:21:48;;;;;;;15.00;13.40;;;13.40;99.90;;;;;;5095737;28;20047;-67
2021/10/19 04:24:14;;;;;;;17.50;14.00;;;13.30;99.90;;;;;;5097761;28;20490;-67
2021/10/19 04:26:40;;;;;;;17.92;13.85;;;13.30;99.90;;;;;;5105032;28;20036;-67
2021/10/19 04:29:06;;;;;;;16.00;14.40;;;13.40;99.90;;;;;;5104975;27;20554;-67
2021/10/19 04:31:32;;;;;;;18.88;14.30;;;13.30;99.90;;;;;;5097250;28;20028;-67
2021/10/19 04:33:59;;;;;;;18.45;14.55;;;13.40;99.90;;;;;;5098945;28;20112;-67
2021/10/19 04:36:26;;;;;;;16.77;14.27;;;13.30;99.90;;;;;;5101178;28;20119;-68
2021/10/19 04:38:52;;;;;;;16.58;14.73;;;13.40;99.90;;;;;;5098640;28;20049;-67
2021/10/19 04:41:17;;;;;;;15.55;13.95;;;13.30;99.90;;;;;;5098141;28;20040;-67
2021/10/19 04:43:43;;;;;;;16.23;14.52;;;13.40;99.90;;;;;;5102849;28;20068;-67
2021/10/19 04:46:08;;;;;;;16.13;14.43;;;13.30;99.90;;;;;;5096526;28;20036;-67
2021/10/19 04:48:34;;;;;;;16.85;15.10;;;13.30;99.90;;;;;;5099452;28;20113;-67
2021/10/19 04:51:00;;;;;;;16.67;14.90;;;13.30;99.90;;;;;;5126462;27;20083;-67
2021/10/19 04:53:25;;;;;;;24.10;15.30;;;13.30;99.90;;;;;;5102784;28;20472;-67
2021/10/19 04:55:51;;;;;;;17.05;15.25;;;13.30;99.90;;;;;;5097663;28;20044;-67
2021/10/19 04:58:17;;;;;;;19.23;16.35;;;13.30;99.90;;;;;;5098103;28;20044;-67
2021/10/19 05:00:43;;;;;;;15.55;13.60;;;13.30;99.90;;;;;;5101593;28;20272;-67
2021/10/19 05:03:09;;;;;;;17.13;14.93;;;13.30;99.90;;;;;;5101323;28;20148;-68
2021/10/19 05:05:35;;;;;;;24.52;15.15;;;13.30;99.90;;;;;;5094273;28;20035;-67
2021/10/19 05:08:00;;;;;;;17.75;14.93;;;13.30;99.90;;;;;;5125236;27;20036;-67
2021/10/19 05:10:26;;;;;;;18.10;15.02;;;13.30;99.90;;;;;;5091072;28;20051;-67
2021/10/19 05:12:52;;;;;;;16.50;14.65;;;13.30;99.90;;;;;;5094115;28;20028;-67
2021/10/19 05:15:17;;;;;;;19.38;14.50;;;13.30;99.90;;;;;;5094430;28;20486;-68
2021/10/19 05:17:44;;;;;;;22.15;16.17;;;13.30;99.90;;;;;;5123807;27;20170;-67
2021/10/19 05:20:10;;;;;;;16.60;14.57;;;13.40;99.90;;;;;;5091170;28;20063;-67
2021/10/19 05:22:36;;;;;;;16.98;14.93;;;13.40;99.90;;;;;;5092641;28;20388;-67
2021/10/19 05:25:03;;;;;;;18.15;16.35;;;13.40;99.90;;;;;;5090299;28;20056;-67
2021/10/19 05:27:29;;;;;;;18.80;16.27;;;13.40;99.90;;;;;;5122849;27;20047;-67
2021/10/19 05:29:54;;;;;;;19.80;16.13;;;13.40;99.90;;;;;;5095152;28;20036;-67
2021/10/19 05:32:20;;;;;;;19.50;15.70;;;13.40;99.90;;;;;;5091642;28;20067;-68
2021/10/19 05:34:46;;;;;;;18.40;16.23;;;13.40;99.90;;;;;;5091472;28;20036;-67
2021/10/19 05:37:11;;;;;;;20.92;16.67;;;13.40;99.90;;;;;;5092695;28;20162;-68
2021/10/19 05:39:37;;;;;;;18.00;15.52;;;13.40;99.90;;;;;;5091319;28;20068;-68
2021/10/19 05:42:04;;;;;;;19.73;15.50;;;13.40;99.90;;;;;;5091190;28;20128;-67
2021/10/19 05:44:30;;;;;;;20.48;17.58;;;13.40;99.90;;;;;;5089942;28;20051;-67
2021/10/19 05:46:55;;;;;;;21.45;17.27;;;13.40;99.90;;;;;;5088056;28;20039;-67
2021/10/19 05:49:21;;;;;;;20.13;17.42;;;13.40;99.90;;;;;;5089127;28;20043;-67
2021/10/19 05:51:48;;;;;;;20.20;17.33;;;13.40;99.90;;;;;;5126763;27;20036;-67
2021/10/19 05:54:15;;;;;;;21.40;17.30;;;13.40;99.90;;;;;;5095888;28;20100;-67
2021/10/19 05:56:41;;;;;;;20.17;17.30;;;13.50;99.90;;;;;;5095702;28;20058;-67
2021/10/19 05:59:06;;;;;;;23.75;18.25;;;13.50;99.90;;;;;;5094547;28;20039;-67
2021/10/19 06:01:32;;;;;;;18.83;16.77;;;13.50;99.90;;;;;;5126478;27;20047;-67
2021/10/19 06:03:57;;;;;;;22.50;18.45;;;13.50;99.90;;;;;;5097744;27;20094;-67
2021/10/19 06:06:23;;;;;;;20.48;17.88;;;13.50;99.90;;;;;;5103327;28;20040;-67
2021/10/19 06:08:51;;;;;;;24.13;19.13;;;13.50;99.90;;;;;;5095220;28;20366;-67
2021/10/19 06:11:18;;;;;;;22.52;18.77;;;13.50;99.90;;;;;;5096714;28;20072;-67
2021/10/19 06:13:44;;;;;;;20.40;18.27;;;13.50;99.90;;;;;;5129248;27;20051;-67
2021/10/19 06:16:10;;;;;;;22.10;17.95;;;13.50;99.90;;;;;;5101622;28;20097;-67
2021/10/19 06:18:35;;;;;;;23.88;19.58;;;13.50;99.90;;;;;;5098362;28;20055;-67
2021/10/19 06:21:02;;;;;;;22.00;19.63;;;13.50;99.90;;;;;;5097661;28;20055;-68
2021/10/19 06:23:28;;;;;;;21.08;17.88;;;13.50;99.90;;;;;;5100528;28;20089;-68
2021/10/19 06:25:53;;;;;;;23.27;18.88;;;13.50;99.90;;;;;;5103231;28;20036;-68
2021/10/19 06:28:19;;;;;;;21.70;18.75;;;13.60;99.90;;;;;;5096490;28;20051;-67
2021/10/19 06:30:45;;;;;;;22.70;18.58;;;13.60;99.90;;;;;;5097006;28;20654;-67
2021/10/19 06:33:10;;;;;;;21.48;19.23;;;13.60;99.90;;;;;;5100433;27;20036;-67
2021/10/19 06:35:36;;;;;;;23.15;20.05;;;13.60;99.90;;;;;;5131365;27;20047;-67
2021/10/19 06:38:02;;;;;;;24.95;18.00;;;13.60;99.90;;;;;;5119652;27;20032;-67
2021/10/19 06:40:27;;;;;;;22.73;20.17;;;13.60;99.90;;;;;;5100465;27;20046;-67
2021/10/19 06:42:53;;;;;;;23.55;19.50;;;13.60;99.90;;;;;;5094992;28;20051;-67
2021/10/19 06:45:18;;;;;;;22.25;19.20;;;13.60;99.90;;;;;;5110867;27;20039;-68
2021/10/19 06:47:44;;;;;;;22.30;19.67;;;13.70;99.90;;;;;;5095564;28;20040;-67
2021/10/19 06:50:13;;;;;;;24.30;18.70;;;13.70;99.90;;;;;;5127004;27;20039;-67
2021/10/19 06:52:38;;;;;;;22.05;19.23;;;13.60;99.90;;;;;;5094054;28;20450;-67
2021/10/19 06:55:05;;;;;;;22.95;19.60;;;13.70;99.90;;;;;;5096125;27;20114;-68
2021/10/19 06:57:31;;;;;;;21.23;19.05;;;13.70;99.90;;;;;;5095751;28;20181;-68
2021/10/19 07:00:00;;;;;;;18.90;16.90;;;13.70;99.90;;;;;;5092768;28;20051;-67
2021/10/19 07:02:26;;;;;;;19.83;17.38;;;13.70;99.90;;;;;;5095813;28;20044;-67
2021/10/19 07:04:52;;;;;;;20.48;18.35;;;13.70;99.90;;;;;;5094110;28;20048;-67
2021/10/19 07:07:17;;;;;;;20.05;17.98;;;13.80;99.90;;;;;;5095535;27;20032;-70
2021/10/19 07:09:43;;;;;;;20.83;17.70;;;13.80;99.90;;;;;;5126221;27;20735;-67
2021/10/19 07:12:08;;;;;;;21.70;19.23;;;13.80;99.90;;;;;;5127313;27;20042;-67
2021/10/19 07:14:34;;;;;;;20.13;18.02;;;13.80;99.90;;;;;;5096838;27;20028;-68
2021/10/19 07:17:00;;;;;;;23.17;18.00;;;13.80;99.90;;;;;;5094310;27;20483;-68
2021/10/19 07:19:26;;;;;;;21.58;19.02;;;13.80;99.90;;;;;;5081095;27;20039;-68
2021/10/19 07:21:51;;;;;;;21.15;18.95;;;13.80;99.90;;;;;;5101167;27;20040;-68
2021/10/19 07:24:17;;;;;;;20.35;18.30;;;13.80;99.90;;;;;;5092767;27;20042;-67
2021/10/19 07:26:42;;;;;;;22.73;18.80;;;13.80;99.90;;;;;;5096977;28;21140;-67
2021/10/19 07:29:09;;;;;;;21.27;18.98;;;13.80;99.90;;;;;;5093239;28;20059;-67
2021/10/19 07:31:35;;;;;;;20.70;18.50;;;13.90;99.90;;;;;;5093348;28;20035;-68
2021/10/19 07:34:03;;;;;;;19.90;17.90;;;13.80;99.90;;;;;;5093315;28;20051;-67
2021/10/19 07:36:28;;;;;;;20.50;18.38;;;13.90;99.90;;;;;;5094461;28;20509;-68
2021/10/19 07:38:54;;;;;;;21.30;18.42;;;13.90;99.90;;;;;;5094362;28;20040;-67
2021/10/19 07:41:20;;;;;;;23.27;18.73;;;13.90;99.90;;;;;;5077093;28;20047;-68
2021/10/19 07:43:45;;;;;;;22.30;20.00;;;13.90;99.90;;;;;;5090943;28;20062;-68
2021/10/19 07:46:11;;;;;;;20.50;18.50;;;14.00;99.90;;;;;;5095301;28;20489;-68
2021/10/19 07:48:37;;;;;;;21.50;18.35;;;13.90;99.90;;;;;;5127467;27;20047;-67
2021/10/19 07:51:02;;;;;;;22.17;19.42;;;13.90;99.90;;;;;;5098366;27;20536;-68
2021/10/19 07:53:28;;;;;;;21.88;19.67;;;13.90;99.90;;;;;;5094432;27;20490;-68
2021/10/19 07:55:54;;;;;;;20.55;18.55;;;14.00;99.90;;;;;;5095826;28;20554;-68
2021/10/19 07:58:20;;;;;;;21.23;18.30;;;14.00;99.90;;;;;;5092855;28;20038;-67
2021/10/19 08:00:46;;;;;;;21.10;18.92;;;14.00;99.90;;;;;;5095117;27;20142;-67
2021/10/19 08:03:11;;;;;;;21.55;18.73;;;14.00;99.90;;;;;;5124460;27;20031;-67
2021/10/19 08:05:41;;;;;;;19.50;17.50;;;14.00;99.90;;;;;;5124252;27;20056;-68
2021/10/19 08:08:12;;;;;;;18.95;17.23;;;14.10;99.90;;;;;;5094984;27;20051;-68
2021/10/19 08:10:39;;;;;;;20.45;17.85;;;14.10;99.90;;;;;;5092783;27;20048;-68
2021/10/19 08:13:07;;;;;;;17.98;16.20;;;14.10;99.90;;;;;;5092366;27;20166;-68
2021/10/19 08:15:33;;;;;;;19.67;17.60;;;14.10;99.90;;;;;;5095526;27;20055;-68
2021/10/19 08:17:59;;;;;;;19.48;16.95;;;14.20;99.90;;;;;;5094943;27;20046;-67
2021/10/19 08:20:25;;;;;;;19.52;17.63;;;14.20;99.90;;;;;;5094180;28;20035;-67
2021/10/19 08:22:51;;;;;;;17.73;15.95;;;14.20;99.90;;;;;;5093923;28;20472;-67
2021/10/19 08:25:17;;;;;;;18.75;16.80;;;14.20;99.90;;;;;;5094436;28;20127;-67
2021/10/19 08:27:45;;;;;;;18.58;16.70;;;14.30;99.90;;;;;;5095548;28;20048;-67
2021/10/19 08:30:12;;;;;;;18.30;16.33;;;14.30;99.90;;;;;;5093263;28;20180;-67
2021/10/19 08:32:38;;;;;;;20.30;18.10;;;14.30;99.90;;;;;;5074970;28;20070;-67
2021/10/19 08:35:07;;;;;;;19.35;17.20;;;14.30;99.90;;;;;;5092905;28;20457;-67
2021/10/19 08:37:33;;;;;;;18.85;16.98;;;14.30;99.90;;;;;;5096282;27;20043;-67
2021/10/19 08:39:59;;;;;;;19.08;16.40;;;14.30;99.90;;;;;;5099056;27;20036;-67
2021/10/19 08:42:26;;;;;;;19.30;17.38;;;14.30;99.90;;;;;;5091762;28;20058;-67
2021/10/19 08:44:52;;;;;;;20.15;18.35;;;14.40;99.90;;;;;;5090784;28;20044;-67
2021/10/19 08:47:18;;;;;;;18.88;16.98;;;14.40;99.90;;;;;;5096164;28;20061;-67
2021/10/19 08:49:43;;;;;;;19.85;17.40;;;14.40;99.90;;;;;;5093880;28;20059;-67
2021/10/19 08:52:09;;;;;;;18.45;16.60;;;14.40;99.90;;;;;;5088961;28;20385;-67
2021/10/19 08:54:36;;;;;;;19.67;17.67;;;14.40;99.90;;;;;;5094344;28;20036;-67
2021/10/19 08:57:02;;;;;;;19.25;17.27;;;14.40;99.90;;;;;;5094494;28;20473;-67
2021/10/19 08:59:28;;;;;;;18.13;16.33;;;14.50;99.90;;;;;;5091885;28;20642;-67
2021/10/19 09:01:57;;;;;;;17.45;15.30;;;14.50;99.90;;;;;;5095026;28;20039;-67
2021/10/19 09:04:28;;;;;;;16.17;14.52;;;14.50;99.90;;;;;;5092081;28;20039;-67
2021/10/19 09:06:54;;;;;;;16.33;14.73;;;14.50;99.90;;;;;;5094129;28;20040;-67
2021/10/19 09:09:24;;;;;;;17.10;15.30;;;14.60;99.90;;;;;;5094840;28;20521;-67
2021/10/19 09:11:52;;;;;;;15.82;14.30;;;14.60;99.90;;;;;;5091676;28;20082;-67
2021/10/19 09:14:20;;;;;;;16.33;14.70;;;14.60;99.90;;;;;;5128449;27;20624;-67
2021/10/19 09:16:49;;;;;;;15.48;13.90;;;14.70;99.90;;;;;;5092046;28;20055;-67
2021/10/19 09:19:18;;;;;;;15.55;13.80;;;14.70;99.90;;;;;;5095479;28;20122;-67
2021/10/19 09:21:46;;;;;;;15.45;13.85;;;14.60;99.90;;;;;;5093546;28;20046;-67
2021/10/19 09:24:29;;;;;;;13.60;12.30;;;14.70;99.90;;;;;;5095888;28;20061;-67
2021/10/19 09:27:02;;;;;;;14.57;13.18;;;14.80;99.90;;;;;;5092753;27;20459;-67
2021/10/19 09:29:30;;;;;;;14.68;12.57;;;14.80;99.90;;;;;;5099860;28;20039;-67
2021/10/19 09:32:02;;;;;;;14.40;13.00;;;14.80;99.90;;;;;;5100821;27;20112;-67
2021/10/19 09:34:33;;;;;;;13.77;12.45;;;14.80;99.90;;;;;;5094979;28;20100;-67
2021/10/19 09:37:03;;;;;;;13.75;12.18;;;14.80;99.90;;;;;;5098727;27;20035;-67
2021/10/19 09:39:31;;;;;;;13.30;12.10;;;14.90;99.90;;;;;;5098225;28;20051;-68
2021/10/19 09:41:56;;;;;;;14.73;13.38;;;14.90;99.90;;;;;;5098566;27;20051;-67
2021/10/19 09:44:22;;;;;;;14.38;12.90;;;15.00;99.90;;;;;;5100341;27;20039;-67
2021/10/19 09:46:49;;;;;;;14.32;12.73;;;15.00;99.90;;;;;;5096857;27;20044;-67
2021/10/19 09:49:15;;;;;;;13.70;11.68;;;15.00;99.90;;;;;;5099050;27;20090;-67
2021/10/19 09:51:41;;;;;;;12.85;11.55;;;15.10;99.90;;;;;;5098854;27;20039;-67
2021/10/19 09:54:09;;;;;;;13.15;11.85;;;15.10;99.90;;;;;;5099762;27;20032;-68
2021/10/19 09:56:40;;;;;;;15.60;11.63;;;15.10;99.90;;;;;;5097382;27;20489;-67
2021/10/19 09:59:07;;;;;;;13.27;11.88;;;15.20;99.90;;;;;;5097854;27;20224;-68
2021/10/19 10:01:33;;;;;;;12.60;11.40;;;15.20;99.90;;;;;;5096314;28;20504;-67
2021/10/19 10:04:00;;;;;;;13.90;11.95;;;15.20;99.90;;;;;;5098044;28;20133;-67
2021/10/19 10:06:35;;;;;;;11.75;10.65;;;15.30;99.90;;;;;;5100947;27;20090;-67
2021/10/19 10:09:02;;;;;;;12.77;11.57;;;15.30;99.90;;;;;;5131822;27;20047;-67
2021/10/19 10:11:28;;;;;;;11.48;10.38;;;15.30;99.90;;;;;;5100039;27;20040;-67
2021/10/19 10:13:59;;;;;;;11.50;10.40;;;15.30;99.90;;;;;;5135028;27;20059;-67
2021/10/19 10:16:25;;;;;;;11.55;10.43;;;15.40;99.90;;;;;;5103989;27;20055;-67
2021/10/19 10:18:51;;;;;;;11.55;10.48;;;15.40;99.90;;;;;;5105566;27;20075;-68
2021/10/19 10:21:19;;;;;;;11.43;10.32;;;15.50;99.90;;;;;;5102369;28;20536;-68
2021/10/19 10:23:57;;;;;;;10.90;9.85;;;15.50;99.90;;;;;;5103508;27;20071;-67
2021/10/19 10:26:25;;;;;;;11.20;10.10;;;15.50;99.90;;;;;;5102985;27;20047;-67
2021/10/19 10:28:50;;;;;;;10.13;8.98;;;15.50;99.90;;;;;;5130886;27;20054;-67
2021/10/19 10:31:24;;;;;;;10.52;9.45;;;15.50;99.90;;;;;;5100977;28;20429;-67
2021/10/19 10:34:03;;;;;;;9.55;8.65;;;15.50;99.90;;;;;;5105519;27;20048;-68
2021/10/19 10:36:42;;;;;;;10.00;9.10;;;15.60;99.90;;;;;;5101286;27;20051;-68
2021/10/19 10:39:08;;;;;;;10.18;9.25;;;15.60;99.90;;;;;;5099956;27;20126;-67
2021/10/19 10:41:39;;;;;;;10.18;9.25;;;15.60;99.90;;;;;;5099438;28;20837;-67
2021/10/19 10:44:05;;;;;;;11.27;10.18;;;15.60;99.90;;;;;;5105071;27;20060;-67
2021/10/19 10:46:32;;;;;;;11.63;10.38;;;15.60;99.90;;;;;;5101381;27;20133;-67
2021/10/19 10:49:11;;;;;;;11.63;9.48;;;15.60;99.90;;;;;;5101147;27;20020;-68
2021/10/19 10:51:40;;;;;;;10.73;9.80;;;15.60;99.90;;;;;;5086259;28;20115;-67
2021/10/19 10:54:13;;;;;;;10.90;9.90;;;15.70;99.90;;;;;;5100956;28;20100;-67
2021/10/19 10:56:43;;;;;;;9.77;8.98;;;15.70;99.90;;;;;;5103090;27;20040;-67
2021/10/19 10:59:09;;;;;;;10.02;9.20;;;15.70;99.90;;;;;;5135273;27;20047;-67
2021/10/19 11:01:35;;;;;;;10.73;9.73;;;15.70;99.90;;;;;;5101582;27;20397;-67
2021/10/19 11:04:11;;;;;;;9.48;8.68;;;15.80;99.90;;;;;;5132450;27;20045;-67
2021/10/19 11:06:40;;;;;;;13.32;10.05;;;15.80;99.90;;;;;;5107002;27;20047;-67
2021/10/19 11:09:06;;;;;;;11.52;10.43;;;15.70;99.90;;;;;;5101601;27;20829;-67
2021/10/19 11:11:37;;;;;;;11.25;10.20;;;15.80;99.90;;;;;;5133449;27;20093;-67
2021/10/19 11:14:10;;;;;;;10.13;9.32;;;15.70;99.90;;;;;;5100660;28;20422;-67
2021/10/19 11:16:52;;;;;;;10.70;9.80;;;15.80;99.90;;;;;;5104594;27;20047;-67
2021/10/19 11:19:22;;;;;;;11.55;10.45;;;15.80;99.90;;;;;;5099717;28;20043;-67
2021/10/19 11:21:51;;;;;;;11.70;10.70;;;15.80;99.90;;;;;;5097913;27;20052;-67
2021/10/19 11:24:17;;;;;;;12.52;11.18;;;15.80;99.90;;;;;;5100503;28;20516;-67
2021/10/19 11:26:43;;;;;;;12.60;11.32;;;15.90;99.90;;;;;;5100248;27;20494;-67
2021/10/19 11:29:16;;;;;;;13.07;11.63;;;15.90;99.90;;;;;;5100774;28;20081;-67
2021/10/19 11:31:42;;;;;;;13.63;11.82;;;15.90;99.90;;;;;;5096368;28;20055;-67
2021/10/19 11:34:08;;;;;;;12.52;11.32;;;16.00;99.90;;;;;;5101678;27;20099;-67
2021/10/19 11:36:35;;;;;;;11.75;10.55;;;16.00;99.90;;;;;;5100013;28;20062;-66
2021/10/19 11:39:11;;;;;;;11.50;10.50;;;16.00;99.90;;;;;;5101036;27;20035;-67
2021/10/19 11:41:48;;;;;;;12.35;11.15;;;16.00;99.90;;;;;;5100864;27;20047;-67
2021/10/19 11:44:15;;;;;;;12.55;11.35;;;16.10;99.90;;;;;;5101139;28;20036;-67
2021/10/19 11:46:41;;;;;;;15.90;12.00;;;16.10;99.90;;;;;;5100117;27;20039;-67
2021/10/19 11:49:13;;;;;;;12.95;10.93;;;16.10;99.90;;;;;;5127392;27;20036;-67
2021/10/19 11:51:43;;;;;;;12.10;10.90;;;16.10;99.90;;;;;;5099206;27;20038;-67
2021/10/19 11:54:09;;;;;;;12.73;11.48;;;16.20;99.90;;;;;;5098201;27;20032;-67
2021/10/19 11:56:35;;;;;;;11.30;10.32;;;16.20;99.90;;;;;;5105812;27;20581;-67
2021/10/19 11:59:03;;;;;;;11.65;9.48;;;16.30;99.90;;;;;;5098982;28;20032;-67
2021/10/19 12:01:40;;;;;;;10.05;9.15;;;16.30;99.90;;;;;;5130331;27;20138;-67
2021/10/19 12:04:12;;;;;;;10.43;9.52;;;16.30;99.90;;;;;;5101887;28;20067;-66
2021/10/19 12:06:46;;;;;;;9.27;8.38;;;16.40;99.90;;;;;;5104391;28;20035;-66
2021/10/19 12:09:25;;;;;;;9.70;8.82;;;16.40;99.90;;;;;;5101418;28;20031;-67
2021/10/19 12:11:53;;;;;;;9.43;8.50;;;16.40;99.90;;;;;;5102642;28;20073;-66
2021/10/19 12:14:34;;;;;;;14.98;9.93;;;16.40;99.90;;;;;;5101432;28;20035;-66
2021/10/19 12:17:02;;;;;;;10.27;9.20;;;16.50;99.90;;;;;;5100481;28;20027;-66
2021/10/19 12:19:28;;;;;;;13.40;10.38;;;16.50;99.90;;;;;;5100251;28;20036;-66
2021/10/19 12:21:57;;;;;;;12.18;9.88;;;16.60;99.90;;;;;;5104541;28;20508;-67
2021/10/19 12:24:23;;;;;;;15.45;10.43;;;16.60;99.90;;;;;;5096378;28;20036;-67
2021/10/19 12:26:59;;;;;;;12.35;10.13;;;16.60;99.90;;;;;;5099922;28;20051;-66